Time;durP1;ratioP1;P1;durP2;ratioP2;P2;SDS_P1;SDS_P2;PMS_P1;PMS_P2;Temp;Humidity;BMP_temperature;BMP_pressure;BME280_temperature;BME280_humidity;BME280_pressure;Samples;Min_cycle;Max_cycle;Signal;HPM_P1;HPM_P2
2022/03/21 00:00:56;;;;;;;4.47;1.70;;;6.70;99.90;;;;;;6209744;23;20157;-90
2022/03/21 00:03:30;;;;;;;6.43;2.50;;;6.60;99.90;;;;;;6203821;23;20199;-91
2022/03/21 00:06:02;;;;;;;3.23;1.80;;;6.60;99.90;;;;;;6206499;23;20166;-91
2022/03/21 00:08:33;;;;;;;2.80;1.53;;;6.60;99.90;;;;;;6210709;23;20193;-93
2022/03/21 00:11:05;;;;;;;4.97;1.50;;;6.50;99.90;;;;;;6186495;23;20173;-93
2022/03/21 00:13:38;;;;;;;5.40;2.00;;;6.40;99.90;;;;;;6209541;23;20196;-92
2022/03/21 00:16:12;;;;;;;6.33;3.70;;;6.40;99.90;;;;;;6213719;23;20161;-91
2022/03/21 00:18:43;;;;;;;4.43;2.53;;;6.50;99.90;;;;;;6211674;23;20209;-92
2022/03/21 00:21:15;;;;;;;2.10;1.50;;;6.60;99.90;;;;;;6204723;23;20170;-92
2022/03/21 00:23:47;;;;;;;5.87;2.57;;;6.40;99.90;;;;;;6199962;23;20175;-92
2022/03/21 00:26:20;;;;;;;4.33;2.30;;;6.50;99.90;;;;;;6207029;23;20244;-92
2022/03/21 00:28:54;;;;;;;5.43;2.20;;;6.40;99.90;;;;;;6194041;23;20216;-92
2022/03/21 00:31:25;;;;;;;4.20;1.50;;;6.40;99.90;;;;;;6201356;23;20200;-93
2022/03/21 00:33:56;;;;;;;4.47;1.97;;;6.30;99.90;;;;;;6210015;23;20176;-93
2022/03/21 00:39:04;;;;;;;5.37;2.60;;;6.30;99.90;;;;;;6178934;23;20209;-92
2022/03/21 00:41:35;;;;;;;5.60;2.87;;;6.30;99.90;;;;;;6204368;23;20176;-93
2022/03/21 00:44:08;;;;;;;6.63;3.20;;;6.30;99.90;;;;;;6207586;23;20181;-93
2022/03/21 00:46:39;;;;;;;4.60;1.80;;;6.20;99.90;;;;;;6205734;23;20165;-91
2022/03/21 00:49:12;;;;;;;3.57;2.10;;;6.20;99.90;;;;;;6202187;23;20197;-92
2022/03/21 00:51:43;;;;;;;3.97;1.70;;;6.10;99.90;;;;;;6167209;23;20181;-92
2022/03/21 00:54:14;;;;;;;3.43;1.70;;;6.10;99.90;;;;;;6201528;23;20185;-93
2022/03/21 00:56:47;;;;;;;5.07;1.67;;;6.00;99.90;;;;;;6196937;23;20184;-94
2022/03/21 00:59:20;;;;;;;6.03;2.77;;;6.00;99.90;;;;;;6180591;23;20180;-92
2022/03/21 01:01:51;;;;;;;4.97;2.10;;;6.10;99.90;;;;;;6178062;23;20184;-92
2022/03/21 01:04:24;;;;;;;6.83;3.10;;;6.10;99.90;;;;;;6170505;23;20177;-92
2022/03/21 01:07:04;;;;;;;2.80;2.10;;;6.00;99.90;;;;;;6206231;23;20173;-92
2022/03/21 01:09:35;;;;;;;2.17;1.80;;;6.10;99.90;;;;;;6205096;23;20219;-92
2022/03/21 01:12:07;;;;;;;3.83;2.87;;;6.10;99.90;;;;;;6204946;23;20170;-91
2022/03/21 01:14:41;;;;;;;4.13;2.90;;;6.10;99.90;;;;;;6200712;23;20169;-91
2022/03/21 01:17:13;;;;;;;2.27;2.07;;;6.20;99.90;;;;;;6205465;23;20170;-92
2022/03/21 01:19:53;;;;;;;2.47;2.27;;;6.20;99.90;;;;;;6210174;23;20213;-92
2022/03/21 01:22:25;;;;;;;3.40;2.27;;;6.10;99.90;;;;;;6203138;23;20181;-92
2022/03/21 01:24:56;;;;;;;3.60;1.97;;;6.10;99.90;;;;;;6204941;23;20177;-93
2022/03/21 01:27:29;;;;;;;3.27;1.70;;;6.10;99.90;;;;;;6205072;23;20169;-92
2022/03/21 01:30:05;;;;;;;2.73;2.10;;;6.20;99.90;;;;;;6206025;23;20211;-93
2022/03/21 01:32:37;;;;;;;5.03;2.87;;;6.20;99.90;;;;;;6204481;23;20168;-93
2022/03/21 01:35:10;;;;;;;3.63;2.67;;;6.10;99.90;;;;;;6204764;23;20255;-92
2022/03/21 01:37:42;;;;;;;5.37;3.07;;;6.10;99.90;;;;;;6205251;23;20175;-92
2022/03/21 01:40:14;;;;;;;5.73;3.40;;;6.00;99.90;;;;;;6178797;23;20182;-92
2022/03/21 01:42:47;;;;;;;5.30;3.20;;;6.10;99.90;;;;;;6209451;23;20165;-92
2022/03/21 01:45:21;;;;;;;6.50;2.73;;;6.20;99.90;;;;;;6208263;23;20163;-92
2022/03/21 01:47:53;;;;;;;5.53;2.40;;;6.20;99.90;;;;;;6211669;23;20159;-91
2022/03/21 01:50:26;;;;;;;6.40;2.50;;;6.10;99.90;;;;;;6211809;23;20154;-92
2022/03/21 01:55:43;;;;;;;4.50;2.53;;;6.20;99.90;;;;;;6213191;23;20204;-91
2022/03/21 01:55:48;;;;;;;6.00;2.67;;;6.10;99.90;;;;;;6212564;23;20179;-92
2022/03/21 01:58:34;;;;;;;4.67;2.37;;;6.10;99.90;;;;;;6176867;23;20195;-89
2022/03/21 02:01:07;;;;;;;4.37;2.83;;;6.10;99.90;;;;;;6212954;23;20161;-91
2022/03/21 02:03:38;;;;;;;5.00;2.20;;;6.00;99.90;;;;;;6213100;23;20165;-92
2022/03/21 02:06:10;;;;;;;3.37;2.37;;;6.00;99.90;;;;;;6212522;23;20165;-91
2022/03/21 02:08:43;;;;;;;3.60;1.80;;;6.00;99.90;;;;;;6185617;23;20204;-93
2022/03/21 02:11:28;;;;;;;2.63;1.63;;;5.90;99.90;;;;;;6210058;23;20174;-93
2022/03/21 02:14:00;;;;;;;2.57;1.97;;;5.90;99.90;;;;;;6206746;23;20173;-93
2022/03/21 02:16:35;;;;;;;2.57;1.60;;;5.90;99.90;;;;;;6200122;23;20177;-93
2022/03/21 02:19:15;;;;;;;3.80;2.20;;;5.90;99.90;;;;;;6204825;23;20180;-92
2022/03/21 02:21:54;;;;;;;2.30;1.97;;;5.80;99.90;;;;;;6206590;23;20580;-92
2022/03/21 02:24:32;;;;;;;2.20;1.47;;;5.80;99.90;;;;;;6212630;23;20153;-92
2022/03/21 02:27:05;;;;;;;4.17;1.87;;;5.70;99.90;;;;;;6163104;23;20169;-94
2022/03/21 02:29:39;;;;;;;5.47;1.57;;;5.70;99.90;;;;;;6171671;23;20208;-93
2022/03/21 02:32:12;;;;;;;4.03;2.13;;;5.70;99.90;;;;;;6199417;23;20185;-93
2022/03/21 02:34:44;;;;;;;2.60;1.53;;;5.60;99.90;;;;;;6209773;23;20188;-93
2022/03/21 02:37:18;;;;;;;1.93;1.60;;;5.60;99.90;;;;;;6177610;23;20177;-92
2022/03/21 02:39:51;;;;;;;3.57;1.53;;;5.60;99.90;;;;;;6207996;23;20181;-92
2022/03/21 02:42:25;;;;;;;3.33;1.37;;;5.60;99.90;;;;;;6205235;23;20173;-94
2022/03/21 02:44:57;;;;;;;4.63;1.23;;;5.70;99.90;;;;;;6206339;23;20196;-93
2022/03/21 02:47:32;;;;;;;5.77;1.70;;;5.70;99.90;;;;;;6204325;23;20637;-92
2022/03/21 02:50:05;;;;;;;2.20;1.50;;;5.60;99.90;;;;;;6178725;23;20197;-93
2022/03/21 02:52:39;;;;;;;1.87;1.20;;;5.60;99.90;;;;;;6204551;23;20161;-93
2022/03/21 03:00:42;;;;;;;3.97;1.43;;;5.60;99.90;;;;;;6206768;23;20191;-92
2022/03/21 03:03:13;;;;;;;5.60;2.60;;;5.60;99.90;;;;;;6204645;23;20232;-93
2022/03/21 03:05:49;;;;;;;2.67;1.60;;;5.60;99.90;;;;;;6147573;23;20229;-84
2022/03/21 03:11:10;;;;;;;2.27;0.93;;;5.60;99.90;;;;;;6204249;23;20221;-94
2022/03/21 03:19:20;;;;;;;2.70;1.20;;;5.60;99.90;;;;;;6201113;23;20192;-92
2022/03/21 03:21:53;;;;;;;1.50;1.07;;;5.60;99.90;;;;;;6181855;23;20222;-91
2022/03/21 03:24:40;;;;;;;1.70;1.20;;;5.60;99.90;;;;;;6183335;23;20199;-93
2022/03/21 03:27:11;;;;;;;2.80;1.77;;;5.60;99.90;;;;;;6179989;23;20197;-93
2022/03/21 03:29:42;;;;;;;3.27;1.50;;;5.60;99.90;;;;;;6206658;23;20209;-91
2022/03/21 03:32:16;;;;;;;1.93;1.60;;;5.60;99.90;;;;;;6206874;23;20170;-88
2022/03/21 03:34:48;;;;;;;9.37;5.83;;;5.70;99.90;;;;;;6206195;23;20636;-91
2022/03/21 03:37:20;;;;;;;4.60;2.80;;;5.60;99.90;;;;;;6202724;23;20319;-92
2022/03/21 03:39:52;;;;;;;3.50;2.20;;;5.60;99.90;;;;;;6205773;23;20184;-92
2022/03/21 03:42:23;;;;;;;4.17;1.20;;;5.60;99.90;;;;;;6206921;23;20165;-93
2022/03/21 03:44:55;;;;;;;2.40;1.30;;;5.60;99.90;;;;;;6180262;23;20173;-92
2022/03/21 03:47:27;;;;;;;2.60;1.50;;;5.60;99.90;;;;;;6205898;23;20181;-91
2022/03/21 03:49:59;;;;;;;2.37;1.50;;;5.60;99.90;;;;;;6206288;23;20205;-91
2022/03/21 03:52:31;;;;;;;1.43;1.00;;;5.60;99.90;;;;;;6207288;23;20185;-92
2022/03/21 03:55:02;;;;;;;1.37;1.00;;;5.60;99.90;;;;;;6209788;23;20209;-92
2022/03/21 04:06:19;;;;;;;1.73;1.10;;;5.70;99.90;;;;;;6205231;23;20224;-91
2022/03/21 04:08:55;;;;;;;1.23;0.90;;;5.60;99.90;;;;;;6206993;23;20257;-94
2022/03/21 04:11:27;;;;;;;1.10;1.00;;;5.70;99.90;;;;;;6202940;23;20176;-92
2022/03/21 04:14:00;;;;;;;1.70;1.30;;;5.70;99.90;;;;;;6210604;23;20177;-92
2022/03/21 04:16:32;;;;;;;1.63;1.40;;;5.70;99.90;;;;;;6168116;23;20177;-92
2022/03/21 04:19:04;;;;;;;3.87;2.20;;;5.70;99.90;;;;;;6191431;23;20211;-92
2022/03/21 04:21:35;;;;;;;4.07;1.60;;;5.70;99.90;;;;;;6192148;23;20211;-91
2022/03/21 04:24:07;;;;;;;1.67;1.40;;;5.70;99.90;;;;;;6191988;23;20177;-92
2022/03/21 04:26:38;;;;;;;1.90;1.10;;;5.70;99.90;;;;;;6191487;23;20200;-91
2022/03/21 04:29:09;;;;;;;5.53;1.83;;;5.70;99.90;;;;;;6192307;23;20169;-91
2022/03/21 04:31:41;;;;;;;5.07;1.83;;;5.70;99.90;;;;;;6193411;23;20176;-92
2022/03/21 04:34:14;;;;;;;4.87;1.50;;;5.70;99.90;;;;;;6197789;23;20240;-91
2022/03/21 04:36:46;;;;;;;2.93;1.80;;;5.70;99.90;;;;;;6193201;23;20184;-93
2022/03/21 04:39:17;;;;;;;4.13;2.10;;;5.70;99.90;;;;;;6195812;23;20204;-92
2022/03/21 04:41:48;;;;;;;5.77;3.30;;;5.80;99.90;;;;;;6211589;23;20173;-92
2022/03/21 04:44:24;;;;;;;12.17;7.90;;;5.70;99.90;;;;;;6211533;23;20180;-91
2022/03/21 04:46:56;;;;;;;4.43;2.13;;;5.70;99.90;;;;;;6205512;23;20227;-92
2022/03/21 04:49:29;;;;;;;4.07;2.00;;;5.70;99.90;;;;;;6156094;23;20161;-92
2022/03/21 04:52:00;;;;;;;3.20;2.03;;;5.70;99.90;;;;;;6204612;23;20173;-92
2022/03/21 04:54:32;;;;;;;2.13;1.40;;;5.70;99.90;;;;;;6196407;23;20169;-93
2022/03/21 04:57:06;;;;;;;2.10;1.37;;;5.70;99.90;;;;;;6198436;23;20651;-93
2022/03/21 04:59:38;;;;;;;4.47;1.50;;;5.60;99.90;;;;;;6194220;23;20173;-92
2022/03/21 05:02:10;;;;;;;5.23;2.10;;;5.60;99.90;;;;;;6195297;23;20174;-92
2022/03/21 05:07:36;;;;;;;2.15;1.70;;;5.60;99.90;;;;;;6175949;23;20200;31
2022/03/21 05:10:11;;;;;;;3.03;1.67;;;5.60;99.90;;;;;;6145324;23;20277;-92
2022/03/21 05:12:43;;;;;;;1.87;1.73;;;5.60;99.90;;;;;;6138650;23;20170;-92
2022/03/21 05:15:14;;;;;;;2.87;1.87;;;5.60;99.90;;;;;;6133988;23;20181;-91
2022/03/21 05:17:51;;;;;;;2.83;1.77;;;5.60;99.90;;;;;;6140464;23;20229;-92
2022/03/21 05:20:23;;;;;;;4.40;1.70;;;5.60;99.90;;;;;;6136501;23;20254;-92
2022/03/21 05:31:15;;;;;;;2.57;1.80;;;5.60;99.90;;;;;;6124183;23;20543;-91
2022/03/21 05:36:32;;;;;;;5.10;2.00;;;5.70;99.90;;;;;;6069894;23;20190;-91
2022/03/21 05:39:04;;;;;;;3.03;1.93;;;5.70;99.90;;;;;;6131401;23;20189;-91
2022/03/21 05:41:37;;;;;;;4.07;1.97;;;5.70;99.90;;;;;;6133888;23;20256;-91
2022/03/21 05:44:11;;;;;;;3.77;2.23;;;5.70;99.90;;;;;;6140030;23;20173;-92
2022/03/21 05:46:42;;;;;;;3.30;1.63;;;5.70;99.90;;;;;;6135379;23;20186;-91
2022/03/21 05:49:11;;;;;;;3.20;2.07;;;5.70;99.90;;;;;;6131728;23;20174;-92
2022/03/21 05:51:42;;;;;;;4.23;2.20;;;5.70;99.90;;;;;;6131081;23;20598;-92
2022/03/21 05:54:15;;;;;;;4.77;2.73;;;5.70;99.90;;;;;;6131159;23;20183;-92
2022/03/21 05:56:48;;;;;;;4.73;2.10;;;5.60;99.90;;;;;;6134078;23;20178;-92
2022/03/21 06:02:08;;;;;;;4.17;1.73;;;5.70;99.90;;;;;;6133969;23;20706;-92
2022/03/21 06:04:40;;;;;;;2.90;1.63;;;5.70;99.90;;;;;;6133802;23;20261;-91
2022/03/21 06:07:11;;;;;;;4.47;1.60;;;5.70;99.90;;;;;;6143472;23;20197;-93
2022/03/21 06:09:43;;;;;;;3.93;1.63;;;5.80;99.90;;;;;;6169119;23;20190;-92
2022/03/21 06:12:16;;;;;;;5.07;1.73;;;5.80;99.90;;;;;;6183611;23;20246;-92
2022/03/21 06:14:47;;;;;;;2.93;1.53;;;5.80;99.90;;;;;;6151028;23;20159;-93
2022/03/21 06:17:18;;;;;;;1.70;1.60;;;5.80;99.90;;;;;;6143653;23;20277;-93
2022/03/21 06:19:49;;;;;;;3.43;1.73;;;5.80;99.90;;;;;;6134133;23;20650;-94
2022/03/21 06:22:20;;;;;;;4.80;1.60;;;5.80;99.90;;;;;;6133096;23;20194;-93
2022/03/21 06:24:51;;;;;;;2.90;1.70;;;5.70;99.90;;;;;;6135782;23;20171;-93
2022/03/21 06:27:24;;;;;;;2.93;1.80;;;5.70;99.90;;;;;;6140007;23;20194;-92
2022/03/21 06:29:56;;;;;;;5.77;1.70;;;5.70;99.90;;;;;;6151483;23;20210;-91
2022/03/21 06:32:27;;;;;;;2.13;1.53;;;5.80;99.90;;;;;;6151057;23;20205;-91
2022/03/21 06:34:58;;;;;;;2.53;1.47;;;5.80;99.90;;;;;;6150408;23;20180;-91
2022/03/21 06:37:29;;;;;;;2.27;1.50;;;5.80;99.90;;;;;;6148003;23;20163;-92
2022/03/21 06:40:00;;;;;;;2.57;1.50;;;5.70;99.90;;;;;;6138469;23;20170;-93
2022/03/21 06:42:33;;;;;;;3.40;1.70;;;5.70;99.90;;;;;;6132456;23;20182;-93
2022/03/21 06:45:06;;;;;;;3.00;1.70;;;5.70;99.90;;;;;;6132479;23;20190;-94
2022/03/21 06:47:37;;;;;;;5.23;1.70;;;5.70;99.90;;;;;;6132292;23;20181;-93
2022/03/21 06:50:10;;;;;;;2.40;1.63;;;5.70;99.90;;;;;;6107890;23;20174;-92
2022/03/21 06:52:43;;;;;;;2.00;1.30;;;5.80;99.90;;;;;;6132069;23;20225;-93
2022/03/21 06:55:16;;;;;;;2.37;1.40;;;5.80;99.90;;;;;;6133779;23;20312;-93
2022/03/21 06:57:49;;;;;;;2.83;1.20;;;5.80;99.90;;;;;;6151444;23;20183;-93
2022/03/21 07:00:21;;;;;;;2.03;1.27;;;5.80;99.90;;;;;;6152242;23;20210;-94
2022/03/21 07:02:51;;;;;;;2.33;1.77;;;5.80;99.90;;;;;;6149671;23;20189;-91
2022/03/21 07:05:26;;;;;;;2.83;1.30;;;5.80;99.90;;;;;;6150024;23;20170;-92
2022/03/21 07:07:56;;;;;;;1.73;1.30;;;5.80;99.90;;;;;;6151167;23;20166;-92
2022/03/21 07:10:27;;;;;;;1.90;1.20;;;5.80;99.90;;;;;;6152246;23;20170;-93
2022/03/21 07:13:01;;;;;;;1.70;1.30;;;5.80;99.90;;;;;;6146449;23;20237;-94
2022/03/21 07:15:33;;;;;;;1.77;1.23;;;5.80;99.90;;;;;;6141215;23;20167;-92
2022/03/21 07:18:04;;;;;;;3.17;1.47;;;5.80;99.90;;;;;;6139885;23;20181;-93
2022/03/21 07:20:35;;;;;;;2.70;1.57;;;5.80;99.90;;;;;;6110672;23;20167;-93
2022/03/21 07:23:06;;;;;;;1.60;1.43;;;5.80;99.90;;;;;;6135338;23;20214;-93
2022/03/21 07:25:37;;;;;;;1.10;1.00;;;5.80;99.90;;;;;;6131746;23;20173;-92
2022/03/21 07:28:10;;;;;;;3.27;1.10;;;5.60;99.90;;;;;;6130649;23;20197;-93
2022/03/21 07:30:42;;;;;;;2.73;1.13;;;5.70;99.90;;;;;;6132963;23;20200;-92
2022/03/21 07:33:13;;;;;;;3.60;1.20;;;5.70;99.90;;;;;;6135939;23;20586;-92
2022/03/21 07:35:44;;;;;;;2.13;1.00;;;5.70;99.90;;;;;;6133464;23;20190;-93
2022/03/21 07:38:15;;;;;;;1.53;1.00;;;5.70;99.90;;;;;;6132884;23;20179;-92
2022/03/21 07:40:47;;;;;;;1.00;0.90;;;5.60;99.90;;;;;;6131582;23;20288;-93
2022/03/21 07:43:20;;;;;;;4.33;1.33;;;5.60;99.90;;;;;;6132161;23;20201;-92
2022/03/21 07:48:39;;;;;;;1.63;0.90;;;5.70;99.90;;;;;;6132430;23;20198;-92
2022/03/21 07:51:10;;;;;;;2.13;1.17;;;5.70;99.90;;;;;;6133345;23;20206;-92
2022/03/21 07:53:42;;;;;;;1.43;1.03;;;5.60;99.90;;;;;;6132766;23;20629;-92
2022/03/21 07:56:14;;;;;;;1.70;1.23;;;5.60;99.90;;;;;;6133500;23;20175;-93
2022/03/21 07:58:47;;;;;;;3.63;1.17;;;5.60;99.90;;;;;;6131758;23;20179;-92
2022/03/21 08:01:18;;;;;;;2.10;1.20;;;5.70;99.90;;;;;;6132734;23;20174;-93
2022/03/21 08:03:50;;;;;;;1.57;1.07;;;5.70;99.90;;;;;;6108122;23;20545;-93
2022/03/21 08:06:21;;;;;;;2.10;1.23;;;5.60;99.90;;;;;;6107813;23;20218;-93
2022/03/21 08:08:54;;;;;;;1.53;1.20;;;5.50;99.90;;;;;;6132582;23;20175;-93
2022/03/21 08:11:25;;;;;;;2.73;0.90;;;5.50;99.90;;;;;;6107925;23;20226;-93
2022/03/21 08:14:00;;;;;;;1.27;1.17;;;5.50;99.90;;;;;;6132753;23;20210;-93
2022/03/21 08:16:32;;;;;;;2.30;1.40;;;5.50;99.90;;;;;;6135364;23;20194;-93
2022/03/21 08:19:04;;;;;;;1.67;1.03;;;5.50;99.90;;;;;;6134831;23;20175;-91
2022/03/21 08:21:35;;;;;;;1.40;1.00;;;5.50;99.90;;;;;;6132860;23;20577;-92
2022/03/21 08:24:08;;;;;;;1.57;1.20;;;5.60;99.90;;;;;;6132850;23;20209;-93
2022/03/21 08:26:39;;;;;;;2.67;1.10;;;5.60;99.90;;;;;;6132933;23;20198;-92
2022/03/21 08:29:12;;;;;;;1.67;1.20;;;5.50;99.90;;;;;;6131664;23;20185;-92
2022/03/21 08:31:44;;;;;;;2.00;1.00;;;5.60;99.90;;;;;;6133398;23;20194;-92
2022/03/21 08:34:15;;;;;;;4.83;1.40;;;5.40;99.90;;;;;;6132010;23;20262;-91
2022/03/21 08:36:46;;;;;;;1.80;1.20;;;5.40;99.90;;;;;;6136558;23;20171;-93
2022/03/21 08:39:18;;;;;;;2.07;1.50;;;5.40;99.90;;;;;;6133183;23;20193;-93
2022/03/21 08:41:49;;;;;;;2.43;1.00;;;5.40;99.90;;;;;;6134156;23;20625;-93
2022/03/21 08:44:23;;;;;;;6.77;1.10;;;5.50;99.90;;;;;;6133463;23;20178;-92
2022/03/21 08:46:54;;;;;;;1.77;1.00;;;5.50;99.90;;;;;;6135916;23;20526;-92
2022/03/21 08:49:26;;;;;;;2.63;1.00;;;5.40;99.90;;;;;;6132286;23;20536;-92
2022/03/21 08:52:03;;;;;;;3.83;1.10;;;5.50;99.90;;;;;;6136871;23;20284;-91
2022/03/21 08:54:34;;;;;;;2.40;1.00;;;5.40;99.90;;;;;;6131408;23;20204;-92
2022/03/21 08:57:06;;;;;;;3.07;0.87;;;5.40;99.90;;;;;;6131001;23;20198;-91
2022/03/21 08:59:39;;;;;;;3.90;1.27;;;5.50;99.90;;;;;;6133148;23;20190;-93
2022/03/21 09:02:10;;;;;;;1.67;1.10;;;5.50;99.90;;;;;;6133013;23;20544;-93
2022/03/21 09:04:42;;;;;;;1.97;0.97;;;5.50;99.90;;;;;;6132268;23;20184;-92
2022/03/21 09:07:13;;;;;;;1.37;0.90;;;5.50;99.90;;;;;;6138235;23;20186;-91
2022/03/21 09:09:44;;;;;;;2.63;0.90;;;5.50;99.90;;;;;;6152557;23;20166;-91
2022/03/21 09:12:15;;;;;;;5.00;1.33;;;5.50;99.90;;;;;;6152397;23;20225;-91
2022/03/21 09:14:49;;;;;;;2.27;0.90;;;5.50;99.90;;;;;;6139354;23;20190;-92
2022/03/21 09:17:20;;;;;;;3.17;0.83;;;5.50;99.90;;;;;;6138834;23;20177;-92
2022/03/21 09:19:52;;;;;;;1.53;0.90;;;5.50;99.90;;;;;;6134047;23;20564;-92
2022/03/21 09:22:23;;;;;;;0.80;0.77;;;5.40;99.90;;;;;;6131736;23;20178;-91
2022/03/21 09:24:54;;;;;;;0.87;0.73;;;5.50;99.90;;;;;;6132172;23;20202;-92
2022/03/21 09:27:26;;;;;;;2.37;1.10;;;5.50;99.90;;;;;;6131293;23;20178;-92
2022/03/21 09:29:59;;;;;;;1.43;0.70;;;5.40;99.90;;;;;;6132111;23;20166;-92
2022/03/21 09:32:30;;;;;;;1.77;1.10;;;5.40;99.90;;;;;;6132566;23;20195;-93
2022/03/21 09:35:01;;;;;;;1.33;0.80;;;5.40;99.90;;;;;;6132420;23;20193;-93
2022/03/21 09:37:33;;;;;;;1.00;0.87;;;5.30;99.90;;;;;;6132038;23;20206;-92
2022/03/21 09:40:03;;;;;;;1.07;0.97;;;5.30;99.90;;;;;;6131568;23;20182;-93
2022/03/21 09:42:36;;;;;;;1.83;1.00;;;5.30;99.90;;;;;;6132509;23;20198;-92
2022/03/21 09:45:12;;;;;;;1.50;0.80;;;5.30;99.90;;;;;;6132554;23;20177;-91
2022/03/21 09:50:36;;;;;;;0.70;0.70;;;5.40;99.90;;;;;;6135135;23;20209;-92
2022/03/21 09:53:07;;;;;;;0.60;0.60;;;5.40;99.90;;;;;;6134187;23;20206;-91
2022/03/21 09:55:39;;;;;;;1.27;1.00;;;5.40;99.90;;;;;;6131884;23;20182;-91
2022/03/21 09:58:10;;;;;;;1.77;0.90;;;5.40;99.90;;;;;;6131077;23;20182;-91
2022/03/21 10:00:48;;;;;;;0.90;0.60;;;5.50;99.90;;;;;;6132572;23;20174;-90
2022/03/21 10:03:20;;;;;;;3.07;1.10;;;5.40;99.90;;;;;;6132272;23;20201;-92
2022/03/21 10:05:51;;;;;;;1.83;0.80;;;5.50;99.90;;;;;;6133253;23;20246;-92
2022/03/21 10:08:24;;;;;;;1.97;0.80;;;5.50;99.90;;;;;;6132323;23;20182;-91
2022/03/21 10:10:57;;;;;;;4.33;1.30;;;5.50;99.90;;;;;;6133321;23;20626;-92
2022/03/21 10:13:29;;;;;;;0.70;0.70;;;5.50;99.90;;;;;;6133322;23;20214;-92
2022/03/21 10:16:13;;;;;;;1.53;0.80;;;5.50;99.90;;;;;;6134214;23;20178;-92
2022/03/21 10:18:59;;;;;;;1.20;0.60;;;5.50;99.90;;;;;;6132201;23;20451;-91
2022/03/21 10:21:31;;;;;;;1.43;0.90;;;5.60;99.90;;;;;;6136753;23;20185;-91
2022/03/21 10:24:06;;;;;;;2.00;0.60;;;5.50;99.90;;;;;;6147722;23;20170;-91
2022/03/21 10:26:42;;;;;;;0.70;0.53;;;5.50;99.90;;;;;;6147549;23;20185;-90
2022/03/21 10:29:18;;;;;;;1.47;0.60;;;5.50;99.90;;;;;;6143559;23;20198;-92
2022/03/21 10:31:52;;;;;;;1.57;0.60;;;5.60;99.90;;;;;;6109322;23;20621;-91
2022/03/21 10:34:29;;;;;;;1.13;0.63;;;5.60;99.90;;;;;;6132469;23;20197;-92
2022/03/21 10:37:02;;;;;;;1.10;0.37;;;5.60;99.90;;;;;;6134263;23;20193;-91
2022/03/21 10:39:35;;;;;;;1.97;0.70;;;5.50;99.90;;;;;;6132927;23;20213;-91
2022/03/21 10:42:09;;;;;;;0.80;0.50;;;5.60;99.90;;;;;;6131434;23;20524;-92
2022/03/21 10:44:40;;;;;;;0.80;0.60;;;5.50;99.90;;;;;;6131769;23;20185;-93
2022/03/21 10:47:16;;;;;;;1.53;0.57;;;5.60;99.90;;;;;;6132992;23;20170;-92
2022/03/21 10:49:48;;;;;;;0.87;0.50;;;5.50;99.90;;;;;;6106332;23;20166;-92
2022/03/21 10:52:21;;;;;;;2.00;0.40;;;5.50;99.90;;;;;;6106775;23;20181;-92
2022/03/21 10:54:55;;;;;;;1.53;0.57;;;5.60;99.90;;;;;;6133355;23;20174;-93
2022/03/21 10:57:33;;;;;;;0.43;0.30;;;5.50;99.90;;;;;;6130859;23;20186;-93
2022/03/21 11:00:21;;;;;;;0.40;0.40;;;5.50;99.90;;;;;;6132269;23;20170;-92
2022/03/21 11:02:57;;;;;;;0.63;0.30;;;5.50;99.90;;;;;;6137190;23;20175;-93
2022/03/21 11:05:30;;;;;;;2.33;0.50;;;5.50;99.90;;;;;;6132927;23;20181;-93
2022/03/21 11:08:01;;;;;;;0.40;0.40;;;5.50;99.90;;;;;;6137972;23;20196;-92
2022/03/21 11:10:32;;;;;;;0.50;0.40;;;5.50;99.90;;;;;;6134480;23;20610;-92
2022/03/21 11:13:06;;;;;;;1.53;0.57;;;5.50;99.90;;;;;;6134216;23;20206;-92
2022/03/21 11:15:40;;;;;;;0.90;0.50;;;5.50;99.90;;;;;;6134413;23;20178;-92
2022/03/21 11:18:12;;;;;;;1.17;0.40;;;5.50;99.90;;;;;;6138826;23;20178;-93
2022/03/21 11:20:44;;;;;;;0.50;0.50;;;5.50;99.90;;;;;;6139878;23;20174;-92
2022/03/21 11:23:17;;;;;;;1.37;0.50;;;5.60;99.90;;;;;;6154016;23;20158;-92
2022/03/21 11:25:52;;;;;;;0.50;0.40;;;5.50;99.90;;;;;;6153874;23;20165;-93
2022/03/21 11:28:58;;;;;;;2.03;0.63;;;5.50;99.90;;;;;;6140754;23;20182;-93
2022/03/21 11:31:56;;;;;;;0.50;0.47;;;5.50;99.90;;;;;;6137179;23;20229;-93
2022/03/21 11:34:45;;;;;;;0.60;0.50;;;5.50;99.90;;;;;;6136821;23;20225;-92
2022/03/21 11:37:30;;;;;;;0.50;0.50;;;5.40;99.90;;;;;;6136586;23;20182;-92
2022/03/21 11:40:28;;;;;;;4.00;0.80;;;5.50;99.90;;;;;;6134610;23;20197;-93
2022/03/21 11:43:32;;;;;;;2.30;0.80;;;5.50;99.90;;;;;;6136302;23;20211;-92
2022/03/21 11:46:29;;;;;;;2.93;0.47;;;5.50;99.90;;;;;;6131887;23;20230;-93
2022/03/21 11:49:02;;;;;;;1.90;0.43;;;5.40;99.90;;;;;;6133578;23;20183;-91
2022/03/21 11:51:43;;;;;;;0.57;0.50;;;5.40;99.90;;;;;;6137961;23;20174;-93
2022/03/21 11:54:32;;;;;;;0.60;0.40;;;5.40;99.90;;;;;;6133235;23;20206;-91
2022/03/21 11:57:06;;;;;;;0.93;0.33;;;5.40;99.90;;;;;;6134843;23;20172;-92
2022/03/21 11:59:58;;;;;;;0.70;0.40;;;5.40;99.90;;;;;;6108042;23;20171;-91
2022/03/21 12:03:01;;;;;;;0.67;0.40;;;5.40;99.90;;;;;;6134379;23;20229;-91
2022/03/21 12:05:53;;;;;;;0.87;0.60;;;5.40;99.90;;;;;;6136545;23;20333;-92
2022/03/21 12:08:48;;;;;;;2.27;0.60;;;5.30;99.90;;;;;;6137289;23;20178;-92
2022/03/21 12:12:01;;;;;;;3.60;0.50;;;5.30;99.90;;;;;;6134610;23;20221;-92
2022/03/21 12:14:43;;;;;;;0.70;0.40;;;5.40;99.90;;;;;;6136239;23;20587;-92
2022/03/21 12:17:50;;;;;;;1.13;0.37;;;5.40;99.90;;;;;;6133580;23;20221;-91
2022/03/21 12:20:23;;;;;;;0.50;0.40;;;5.30;99.90;;;;;;6134064;23;20183;-92
2022/03/21 12:23:21;;;;;;;1.10;0.60;;;5.30;99.90;;;;;;6133815;23;20301;-92
2022/03/21 12:26:00;;;;;;;0.60;0.60;;;5.40;99.90;;;;;;6151307;23;20212;-91
2022/03/21 12:31:26;;;;;;;0.70;0.57;;;5.30;99.90;;;;;;6153962;23;20158;-92
2022/03/21 12:34:39;;;;;;;0.50;0.40;;;5.20;99.90;;;;;;6153193;23;20214;-90
2022/03/21 12:37:11;;;;;;;1.60;0.60;;;5.30;99.90;;;;;;6153280;23;20174;-94
2022/03/21 12:39:43;;;;;;;0.60;0.60;;;5.30;99.90;;;;;;6153603;23;20175;-93
2022/03/21 12:42:20;;;;;;;0.70;0.70;;;5.30;99.90;;;;;;6153624;23;20166;-92
2022/03/21 12:44:51;;;;;;;0.87;0.57;;;5.30;99.90;;;;;;6153776;23;20162;-92
2022/03/21 12:47:22;;;;;;;0.60;0.60;;;5.30;99.90;;;;;;6150916;23;20211;-92
2022/03/21 12:49:55;;;;;;;2.43;0.70;;;5.30;99.90;;;;;;6151228;23;20167;-90
2022/03/21 12:52:34;;;;;;;1.80;0.50;;;5.30;99.90;;;;;;6150705;23;20179;-92
2022/03/21 12:55:05;;;;;;;2.50;0.60;;;5.30;99.90;;;;;;6152302;23;20205;-92
2022/03/21 12:57:55;;;;;;;3.70;0.50;;;5.30;99.90;;;;;;6151334;23;20175;-93
2022/03/21 13:00:27;;;;;;;0.40;0.40;;;5.20;99.90;;;;;;6151947;23;20602;-89
2022/03/21 13:03:04;;;;;;;1.00;0.50;;;5.20;99.90;;;;;;6149971;23;20226;-91
2022/03/21 13:11:23;;;;;;;1.30;0.60;;;5.20;99.90;;;;;;6149176;23;20171;-91
2022/03/21 13:13:59;;;;;;;2.83;0.73;;;5.20;99.90;;;;;;6147119;23;20207;-91
2022/03/21 13:16:38;;;;;;;2.27;0.90;;;5.30;99.90;;;;;;6146079;23;20191;-91
2022/03/21 13:19:15;;;;;;;0.60;0.60;;;5.20;99.90;;;;;;6143889;23;20177;-90
2022/03/21 13:21:47;;;;;;;1.83;1.00;;;5.20;99.90;;;;;;6143143;23;20181;-91
2022/03/21 13:24:35;;;;;;;1.83;1.10;;;5.20;99.90;;;;;;6120726;23;20167;-92
2022/03/21 13:27:06;;;;;;;1.37;1.00;;;5.20;99.90;;;;;;6147278;23;20182;-92
2022/03/21 13:29:50;;;;;;;1.10;1.03;;;5.20;99.90;;;;;;6150659;23;20167;-91
2022/03/21 13:32:22;;;;;;;1.20;0.87;;;5.20;99.90;;;;;;6151904;23;20154;-91
2022/03/21 13:34:56;;;;;;;1.87;0.90;;;5.20;99.90;;;;;;6151537;23;20204;-91
2022/03/21 13:37:27;;;;;;;1.80;1.17;;;5.20;99.90;;;;;;6147495;23;20170;-92
2022/03/21 13:40:02;;;;;;;1.87;1.27;;;5.20;99.90;;;;;;6144629;23;20175;-92
2022/03/21 13:42:34;;;;;;;2.17;1.30;;;5.20;99.90;;;;;;6144909;23;20593;-92
2022/03/21 13:45:08;;;;;;;2.77;1.07;;;5.20;99.90;;;;;;6144805;23;20193;-92
2022/03/21 13:47:57;;;;;;;2.70;1.00;;;5.20;99.90;;;;;;6141480;23;20177;-93
2022/03/21 13:50:38;;;;;;;2.10;0.90;;;5.20;99.90;;;;;;6143716;23;20178;-91
2022/03/21 13:53:29;;;;;;;0.80;0.80;;;5.20;99.90;;;;;;6143729;23;20185;-91
2022/03/21 13:56:00;;;;;;;0.93;0.80;;;5.20;99.90;;;;;;6141697;23;20277;-91
2022/03/21 13:58:34;;;;;;;3.00;1.13;;;5.20;99.90;;;;;;6138944;23;20179;-92
2022/03/21 14:01:20;;;;;;;1.20;1.10;;;5.10;99.90;;;;;;6138077;23;20189;-92
2022/03/21 14:03:53;;;;;;;1.53;1.17;;;5.00;99.90;;;;;;6139352;23;20955;-92
2022/03/21 14:06:24;;;;;;;1.83;1.60;;;5.10;99.90;;;;;;6141338;23;20174;-91
2022/03/21 14:09:16;;;;;;;2.93;1.03;;;5.10;99.90;;;;;;6141810;23;20210;-93
2022/03/21 14:11:47;;;;;;;1.47;1.10;;;5.10;99.90;;;;;;6143483;23;20202;-91
2022/03/21 14:14:18;;;;;;;1.20;1.10;;;5.10;99.90;;;;;;6171296;23;20201;-90
2022/03/21 14:16:51;;;;;;;2.03;1.20;;;5.10;99.90;;;;;;6174393;23;20248;-92
2022/03/21 14:19:23;;;;;;;0.80;0.80;;;5.10;99.90;;;;;;6171811;23;20505;-92
2022/03/21 14:21:54;;;;;;;1.07;0.97;;;5.10;99.90;;;;;;6164492;23;20193;-92
2022/03/21 14:24:25;;;;;;;2.53;1.00;;;5.10;99.90;;;;;;6162635;23;20165;-92
2022/03/21 14:26:56;;;;;;;1.07;0.83;;;5.10;99.90;;;;;;6163769;23;20240;-93
2022/03/21 14:29:27;;;;;;;5.63;1.40;;;5.20;99.90;;;;;;6162963;23;20253;-91
2022/03/21 14:32:00;;;;;;;1.70;1.20;;;5.20;99.90;;;;;;6164843;23;20166;-91